sensor_id;sensor_type;location;lat;lon;timestamp;P1;durP1;ratioP1;P2;durP2;ratioP2
24801;SDS011;12898;50.520;12.152;2023-09-19T00:01:12;5.45;;;2.00;;
24801;SDS011;12898;50.520;12.152;2023-09-19T00:03:39;3.33;;;1.90;;
24801;SDS011;12898;50.520;12.152;2023-09-19T00:06:06;8.60;;;2.17;;
24801;SDS011;12898;50.520;12.152;2023-09-19T00:08:33;5.32;;;1.88;;
24801;SDS011;12898;50.520;12.152;2023-09-19T00:10:59;6.40;;;2.40;;
24801;SDS011;12898;50.520;12.152;2023-09-19T00:13:31;3.55;;;1.92;;
24801;SDS011;12898;50.520;12.152;2023-09-19T00:15:58;5.90;;;2.35;;
24801;SDS011;12898;50.520;12.152;2023-09-19T00:18:25;2.80;;;1.77;;
24801;SDS011;12898;50.520;12.152;2023-09-19T00:20:57;5.57;;;2.10;;
24801;SDS011;12898;50.520;12.152;2023-09-19T00:23:23;5.43;;;1.88;;
24801;SDS011;12898;50.520;12.152;2023-09-19T00:25:50;2.17;;;1.73;;
24801;SDS011;12898;50.520;12.152;2023-09-19T00:28:16;4.03;;;1.85;;
24801;SDS011;12898;50.520;12.152;2023-09-19T00:30:43;4.18;;;1.70;;
24801;SDS011;12898;50.520;12.152;2023-09-19T00:33:11;4.80;;;2.00;;
24801;SDS011;12898;50.520;12.152;2023-09-19T00:35:46;6.35;;;2.00;;
24801;SDS011;12898;50.520;12.152;2023-09-19T00:38:16;4.57;;;1.70;;
24801;SDS011;12898;50.520;12.152;2023-09-19T00:40:44;3.85;;;1.65;;
24801;SDS011;12898;50.520;12.152;2023-09-19T00:43:10;3.47;;;1.55;;
24801;SDS011;12898;50.520;12.152;2023-09-19T00:45:36;7.68;;;1.90;;
24801;SDS011;12898;50.520;12.152;2023-09-19T00:48:07;4.18;;;1.88;;
24801;SDS011;12898;50.520;12.152;2023-09-19T00:50:34;3.05;;;2.00;;
24801;SDS011;12898;50.520;12.152;2023-09-19T00:53:00;2.75;;;1.75;;
24801;SDS011;12898;50.520;12.152;2023-09-19T00:55:32;3.33;;;1.38;;
24801;SDS011;12898;50.520;12.152;2023-09-19T00:57:59;5.55;;;1.65;;
24801;SDS011;12898;50.520;12.152;2023-09-19T01:00:26;3.15;;;1.50;;
24801;SDS011;12898;50.520;12.152;2023-09-19T01:02:52;4.50;;;1.70;;
24801;SDS011;12898;50.520;12.152;2023-09-19T01:05:19;4.97;;;1.50;;
24801;SDS011;12898;50.520;12.152;2023-09-19T01:07:44;4.22;;;1.70;;
24801;SDS011;12898;50.520;12.152;2023-09-19T01:10:14;4.75;;;1.70;;
24801;SDS011;12898;50.520;12.152;2023-09-19T01:12:54;5.22;;;1.67;;
24801;SDS011;12898;50.520;12.152;2023-09-19T01:23:24;3.58;;;1.40;;
24801;SDS011;12898;50.520;12.152;2023-09-19T01:32:05;4.97;;;2.00;;
24801;SDS011;12898;50.520;12.152;2023-09-19T01:34:44;4.20;;;1.42;;
24801;SDS011;12898;50.520;12.152;2023-09-19T01:37:23;3.25;;;1.50;;
24801;SDS011;12898;50.520;12.152;2023-09-19T01:39:55;5.53;;;1.70;;
24801;SDS011;12898;50.520;12.152;2023-09-19T01:42:43;4.35;;;1.80;;
24801;SDS011;12898;50.520;12.152;2023-09-19T01:48:49;2.47;;;1.25;;
24801;SDS011;12898;50.520;12.152;2023-09-19T01:51:15;4.13;;;1.60;;
24801;SDS011;12898;50.520;12.152;2023-09-19T01:54:00;2.25;;;1.50;;
24801;SDS011;12898;50.520;12.152;2023-09-19T01:56:36;5.80;;;1.80;;
24801;SDS011;12898;50.520;12.152;2023-09-19T01:59:10;5.03;;;1.50;;
24801;SDS011;12898;50.520;12.152;2023-09-19T02:01:39;3.90;;;1.55;;
24801;SDS011;12898;50.520;12.152;2023-09-19T02:04:07;5.40;;;1.52;;
24801;SDS011;12898;50.520;12.152;2023-09-19T02:06:32;5.38;;;2.17;;
24801;SDS011;12898;50.520;12.152;2023-09-19T02:08:59;3.97;;;1.40;;
24801;SDS011;12898;50.520;12.152;2023-09-19T02:11:25;3.50;;;1.67;;
24801;SDS011;12898;50.520;12.152;2023-09-19T02:13:51;5.45;;;2.55;;
24801;SDS011;12898;50.520;12.152;2023-09-19T02:16:19;3.05;;;1.60;;
24801;SDS011;12898;50.520;12.152;2023-09-19T02:18:47;2.80;;;1.80;;
24801;SDS011;12898;50.520;12.152;2023-09-19T02:21:14;4.43;;;1.70;;
24801;SDS011;12898;50.520;12.152;2023-09-19T02:23:42;3.72;;;2.15;;
24801;SDS011;12898;50.520;12.152;2023-09-19T02:26:09;4.32;;;2.00;;
24801;SDS011;12898;50.520;12.152;2023-09-19T02:28:36;3.60;;;1.80;;
24801;SDS011;12898;50.520;12.152;2023-09-19T02:31:02;6.53;;;2.10;;
24801;SDS011;12898;50.520;12.152;2023-09-19T02:33:30;4.57;;;2.00;;
24801;SDS011;12898;50.520;12.152;2023-09-19T02:35:57;5.90;;;2.50;;
24801;SDS011;12898;50.520;12.152;2023-09-19T02:38:24;5.07;;;2.03;;
24801;SDS011;12898;50.520;12.152;2023-09-19T02:40:51;3.97;;;2.55;;
24801;SDS011;12898;50.520;12.152;2023-09-19T02:43:17;5.75;;;2.00;;
24801;SDS011;12898;50.520;12.152;2023-09-19T02:45:44;3.42;;;1.90;;
24801;SDS011;12898;50.520;12.152;2023-09-19T02:48:11;5.25;;;2.10;;
24801;SDS011;12898;50.520;12.152;2023-09-19T02:50:37;3.90;;;2.25;;
24801;SDS011;12898;50.520;12.152;2023-09-19T02:53:05;3.03;;;2.00;;
24801;SDS011;12898;50.520;12.152;2023-09-19T02:55:31;4.82;;;2.03;;
24801;SDS011;12898;50.520;12.152;2023-09-19T02:57:57;3.05;;;1.90;;
24801;SDS011;12898;50.520;12.152;2023-09-19T03:00:23;4.50;;;1.98;;
24801;SDS011;12898;50.520;12.152;2023-09-19T03:02:53;3.45;;;1.67;;
24801;SDS011;12898;50.520;12.152;2023-09-19T03:05:20;4.32;;;2.00;;
24801;SDS011;12898;50.520;12.152;2023-09-19T03:07:48;3.97;;;2.03;;
24801;SDS011;12898;50.520;12.152;2023-09-19T03:10:18;5.43;;;2.25;;
24801;SDS011;12898;50.520;12.152;2023-09-19T03:12:45;3.42;;;1.63;;
24801;SDS011;12898;50.520;12.152;2023-09-19T03:15:12;4.05;;;1.70;;
24801;SDS011;12898;50.520;12.152;2023-09-19T03:17:44;2.67;;;1.70;;
24801;SDS011;12898;50.520;12.152;2023-09-19T03:20:11;4.47;;;2.05;;
24801;SDS011;12898;50.520;12.152;2023-09-19T03:22:38;8.48;;;1.83;;
24801;SDS011;12898;50.520;12.152;2023-09-19T03:25:05;2.70;;;1.80;;
24801;SDS011;12898;50.520;12.152;2023-09-19T03:27:35;2.80;;;1.70;;
24801;SDS011;12898;50.520;12.152;2023-09-19T03:30:02;2.28;;;1.70;;
24801;SDS011;12898;50.520;12.152;2023-09-19T03:32:33;5.18;;;1.80;;
24801;SDS011;12898;50.520;12.152;2023-09-19T03:35:01;5.28;;;1.70;;
24801;SDS011;12898;50.520;12.152;2023-09-19T03:37:27;3.17;;;1.88;;
24801;SDS011;12898;50.520;12.152;2023-09-19T03:39:53;4.82;;;2.20;;
24801;SDS011;12898;50.520;12.152;2023-09-19T03:42:18;3.95;;;1.75;;
24801;SDS011;12898;50.520;12.152;2023-09-19T03:44:50;8.82;;;2.75;;
24801;SDS011;12898;50.520;12.152;2023-09-19T03:47:17;5.38;;;2.08;;
24801;SDS011;12898;50.520;12.152;2023-09-19T03:49:44;4.75;;;1.80;;
24801;SDS011;12898;50.520;12.152;2023-09-19T03:52:10;4.03;;;1.80;;
24801;SDS011;12898;50.520;12.152;2023-09-19T03:54:36;4.85;;;2.03;;
24801;SDS011;12898;50.520;12.152;2023-09-19T03:57:02;4.43;;;1.90;;
24801;SDS011;12898;50.520;12.152;2023-09-19T03:59:29;4.60;;;1.63;;
24801;SDS011;12898;50.520;12.152;2023-09-19T04:01:54;4.05;;;2.00;;
24801;SDS011;12898;50.520;12.152;2023-09-19T04:04:22;4.10;;;1.85;;
24801;SDS011;12898;50.520;12.152;2023-09-19T04:06:50;3.88;;;2.03;;
24801;SDS011;12898;50.520;12.152;2023-09-19T04:09:16;4.90;;;1.50;;
24801;SDS011;12898;50.520;12.152;2023-09-19T04:11:42;2.47;;;1.80;;
24801;SDS011;12898;50.520;12.152;2023-09-19T04:14:07;4.18;;;1.70;;
24801;SDS011;12898;50.520;12.152;2023-09-19T04:16:33;4.40;;;2.08;;
24801;SDS011;12898;50.520;12.152;2023-09-19T04:19:01;4.20;;;1.88;;
24801;SDS011;12898;50.520;12.152;2023-09-19T04:21:28;5.75;;;1.70;;
24801;SDS011;12898;50.520;12.152;2023-09-19T04:23:54;3.63;;;1.85;;
24801;SDS011;12898;50.520;12.152;2023-09-19T04:26:20;3.10;;;1.90;;
24801;SDS011;12898;50.520;12.152;2023-09-19T04:28:46;6.60;;;2.10;;
24801;SDS011;12898;50.520;12.152;2023-09-19T04:31:12;4.13;;;1.88;;
24801;SDS011;12898;50.520;12.152;2023-09-19T04:33:39;4.35;;;2.00;;
24801;SDS011;12898;50.520;12.152;2023-09-19T04:36:05;2.97;;;1.70;;
24801;SDS011;12898;50.520;12.152;2023-09-19T04:38:32;3.00;;;1.63;;
24801;SDS011;12898;50.520;12.152;2023-09-19T04:40:58;4.82;;;1.70;;
24801;SDS011;12898;50.520;12.152;2023-09-19T04:43:24;3.40;;;1.70;;
24801;SDS011;12898;50.520;12.152;2023-09-19T04:45:51;3.50;;;1.70;;
24801;SDS011;12898;50.520;12.152;2023-09-19T04:48:20;7.50;;;1.88;;
24801;SDS011;12898;50.520;12.152;2023-09-19T04:50:49;5.53;;;2.10;;
24801;SDS011;12898;50.520;12.152;2023-09-19T04:53:16;2.97;;;1.98;;
24801;SDS011;12898;50.520;12.152;2023-09-19T04:55:45;5.25;;;2.38;;
24801;SDS011;12898;50.520;12.152;2023-09-19T04:58:18;7.10;;;2.10;;
24801;SDS011;12898;50.520;12.152;2023-09-19T05:00:45;9.98;;;2.30;;
24801;SDS011;12898;50.520;12.152;2023-09-19T05:03:10;7.85;;;2.53;;
24801;SDS011;12898;50.520;12.152;2023-09-19T05:05:36;5.15;;;1.90;;
24801;SDS011;12898;50.520;12.152;2023-09-19T05:08:03;5.28;;;2.00;;
24801;SDS011;12898;50.520;12.152;2023-09-19T05:10:30;6.00;;;2.05;;
24801;SDS011;12898;50.520;12.152;2023-09-19T05:12:57;3.20;;;1.98;;
24801;SDS011;12898;50.520;12.152;2023-09-19T05:15:23;4.18;;;2.13;;
24801;SDS011;12898;50.520;12.152;2023-09-19T05:17:52;8.02;;;2.03;;
24801;SDS011;12898;50.520;12.152;2023-09-19T05:20:20;4.75;;;2.20;;
24801;SDS011;12898;50.520;12.152;2023-09-19T05:23:03;7.70;;;1.80;;
24801;SDS011;12898;50.520;12.152;2023-09-19T05:25:34;5.85;;;2.00;;
24801;SDS011;12898;50.520;12.152;2023-09-19T05:28:08;4.65;;;2.10;;
24801;SDS011;12898;50.520;12.152;2023-09-19T05:30:37;4.30;;;1.83;;
24801;SDS011;12898;50.520;12.152;2023-09-19T05:33:04;7.68;;;2.15;;
24801;SDS011;12898;50.520;12.152;2023-09-19T05:35:30;4.97;;;1.98;;
24801;SDS011;12898;50.520;12.152;2023-09-19T05:37:57;5.72;;;2.15;;
24801;SDS011;12898;50.520;12.152;2023-09-19T05:40:23;4.03;;;2.03;;
24801;SDS011;12898;50.520;12.152;2023-09-19T05:42:50;3.83;;;1.92;;
24801;SDS011;12898;50.520;12.152;2023-09-19T05:45:16;6.90;;;1.98;;
24801;SDS011;12898;50.520;12.152;2023-09-19T05:47:47;6.22;;;1.98;;
24801;SDS011;12898;50.520;12.152;2023-09-19T05:50:20;3.53;;;2.15;;
24801;SDS011;12898;50.520;12.152;2023-09-19T05:52:53;4.43;;;2.28;;
24801;SDS011;12898;50.520;12.152;2023-09-19T05:55:20;2.53;;;1.70;;
24801;SDS011;12898;50.520;12.152;2023-09-19T05:57:49;6.30;;;1.98;;
24801;SDS011;12898;50.520;12.152;2023-09-19T06:00:17;3.92;;;1.85;;
24801;SDS011;12898;50.520;12.152;2023-09-19T06:02:49;3.47;;;1.70;;
24801;SDS011;12898;50.520;12.152;2023-09-19T06:05:19;3.15;;;1.67;;
24801;SDS011;12898;50.520;12.152;2023-09-19T06:07:45;5.00;;;2.15;;
24801;SDS011;12898;50.520;12.152;2023-09-19T06:10:12;5.63;;;2.20;;
24801;SDS011;12898;50.520;12.152;2023-09-19T06:12:38;4.82;;;2.05;;
24801;SDS011;12898;50.520;12.152;2023-09-19T06:15:05;4.97;;;2.10;;
24801;SDS011;12898;50.520;12.152;2023-09-19T06:17:33;5.55;;;2.22;;
24801;SDS011;12898;50.520;12.152;2023-09-19T06:20:03;3.65;;;2.17;;
24801;SDS011;12898;50.520;12.152;2023-09-19T06:22:39;4.32;;;2.05;;
24801;SDS011;12898;50.520;12.152;2023-09-19T06:25:07;2.88;;;2.03;;
24801;SDS011;12898;50.520;12.152;2023-09-19T06:27:41;4.40;;;2.20;;
24801;SDS011;12898;50.520;12.152;2023-09-19T06:30:08;4.35;;;2.10;;
24801;SDS011;12898;50.520;12.152;2023-09-19T06:32:36;4.10;;;1.92;;
24801;SDS011;12898;50.520;12.152;2023-09-19T06:35:02;3.85;;;2.20;;
24801;SDS011;12898;50.520;12.152;2023-09-19T06:37:28;4.20;;;1.80;;
24801;SDS011;12898;50.520;12.152;2023-09-19T06:39:54;3.40;;;2.10;;
24801;SDS011;12898;50.520;12.152;2023-09-19T06:42:22;4.03;;;1.77;;
24801;SDS011;12898;50.520;12.152;2023-09-19T06:44:48;4.05;;;2.13;;
24801;SDS011;12898;50.520;12.152;2023-09-19T06:47:14;4.78;;;2.00;;
24801;SDS011;12898;50.520;12.152;2023-09-19T06:49:41;5.45;;;2.08;;
24801;SDS011;12898;50.520;12.152;2023-09-19T06:52:09;4.75;;;2.00;;
24801;SDS011;12898;50.520;12.152;2023-09-19T06:54:35;6.55;;;2.10;;
24801;SDS011;12898;50.520;12.152;2023-09-19T06:57:01;4.85;;;1.90;;
24801;SDS011;12898;50.520;12.152;2023-09-19T06:59:27;6.50;;;2.00;;
24801;SDS011;12898;50.520;12.152;2023-09-19T07:01:52;4.25;;;2.28;;
24801;SDS011;12898;50.520;12.152;2023-09-19T07:04:18;3.08;;;1.63;;
24801;SDS011;12898;50.520;12.152;2023-09-19T07:06:44;4.60;;;1.98;;
24801;SDS011;12898;50.520;12.152;2023-09-19T07:09:15;5.97;;;2.03;;
24801;SDS011;12898;50.520;12.152;2023-09-19T07:11:41;4.18;;;1.67;;
24801;SDS011;12898;50.520;12.152;2023-09-19T07:14:08;4.18;;;1.77;;
24801;SDS011;12898;50.520;12.152;2023-09-19T07:16:36;3.60;;;1.73;;
24801;SDS011;12898;50.520;12.152;2023-09-19T07:19:04;3.35;;;1.48;;
24801;SDS011;12898;50.520;12.152;2023-09-19T07:21:30;3.28;;;1.60;;
24801;SDS011;12898;50.520;12.152;2023-09-19T07:23:59;4.97;;;2.05;;
24801;SDS011;12898;50.520;12.152;2023-09-19T07:26:25;4.35;;;1.48;;
24801;SDS011;12898;50.520;12.152;2023-09-19T07:28:53;3.75;;;1.73;;
24801;SDS011;12898;50.520;12.152;2023-09-19T07:31:19;3.25;;;1.50;;
24801;SDS011;12898;50.520;12.152;2023-09-19T07:33:45;3.80;;;1.45;;
24801;SDS011;12898;50.520;12.152;2023-09-19T07:36:11;4.60;;;1.63;;
24801;SDS011;12898;50.520;12.152;2023-09-19T07:38:41;2.17;;;1.45;;
24801;SDS011;12898;50.520;12.152;2023-09-19T07:41:07;3.15;;;1.63;;
24801;SDS011;12898;50.520;12.152;2023-09-19T07:43:34;2.45;;;1.23;;
24801;SDS011;12898;50.520;12.152;2023-09-19T07:46:03;4.22;;;1.27;;
24801;SDS011;12898;50.520;12.152;2023-09-19T07:48:34;4.25;;;1.20;;
24801;SDS011;12898;50.520;12.152;2023-09-19T07:51:07;2.97;;;1.17;;
24801;SDS011;12898;50.520;12.152;2023-09-19T07:53:34;5.18;;;1.40;;
24801;SDS011;12898;50.520;12.152;2023-09-19T07:56:07;2.38;;;1.30;;
24801;SDS011;12898;50.520;12.152;2023-09-19T07:58:35;3.78;;;1.35;;
24801;SDS011;12898;50.520;12.152;2023-09-19T08:01:09;5.10;;;1.10;;
24801;SDS011;12898;50.520;12.152;2023-09-19T08:03:36;2.63;;;0.90;;
24801;SDS011;12898;50.520;12.152;2023-09-19T08:06:06;2.15;;;1.20;;
24801;SDS011;12898;50.520;12.152;2023-09-19T08:08:33;4.30;;;1.35;;
24801;SDS011;12898;50.520;12.152;2023-09-19T08:11:02;1.88;;;0.90;;
24801;SDS011;12898;50.520;12.152;2023-09-19T08:13:39;2.90;;;1.10;;
24801;SDS011;12898;50.520;12.152;2023-09-19T08:16:14;4.57;;;1.10;;
24801;SDS011;12898;50.520;12.152;2023-09-19T08:18:48;3.33;;;1.00;;
24801;SDS011;12898;50.520;12.152;2023-09-19T08:21:18;1.77;;;0.88;;
24801;SDS011;12898;50.520;12.152;2023-09-19T08:23:44;2.65;;;1.00;;
24801;SDS011;12898;50.520;12.152;2023-09-19T08:26:10;4.47;;;1.02;;
24801;SDS011;12898;50.520;12.152;2023-09-19T08:28:39;2.58;;;1.00;;
24801;SDS011;12898;50.520;12.152;2023-09-19T08:31:08;2.83;;;1.10;;
24801;SDS011;12898;50.520;12.152;2023-09-19T08:33:34;3.97;;;0.90;;
24801;SDS011;12898;50.520;12.152;2023-09-19T08:36:04;4.10;;;1.17;;
24801;SDS011;12898;50.520;12.152;2023-09-19T08:38:33;1.27;;;0.80;;
24801;SDS011;12898;50.520;12.152;2023-09-19T08:41:00;3.40;;;1.00;;
24801;SDS011;12898;50.520;12.152;2023-09-19T08:43:30;5.22;;;1.30;;
24801;SDS011;12898;50.520;12.152;2023-09-19T08:46:03;3.47;;;0.70;;
24801;SDS011;12898;50.520;12.152;2023-09-19T08:48:36;1.08;;;0.77;;
24801;SDS011;12898;50.520;12.152;2023-09-19T08:51:45;2.05;;;0.90;;
24801;SDS011;12898;50.520;12.152;2023-09-19T08:57:07;1.83;;;1.00;;
24801;SDS011;12898;50.520;12.152;2023-09-19T08:59:35;1.40;;;1.00;;
24801;SDS011;12898;50.520;12.152;2023-09-19T09:02:08;3.30;;;1.20;;
24801;SDS011;12898;50.520;12.152;2023-09-19T09:04:38;3.05;;;1.00;;
24801;SDS011;12898;50.520;12.152;2023-09-19T09:07:09;2.15;;;1.00;;
24801;SDS011;12898;50.520;12.152;2023-09-19T09:09:38;5.68;;;1.00;;
24801;SDS011;12898;50.520;12.152;2023-09-19T09:12:08;2.65;;;1.00;;
24801;SDS011;12898;50.520;12.152;2023-09-19T09:14:38;2.58;;;1.00;;
24801;SDS011;12898;50.520;12.152;2023-09-19T09:17:14;4.88;;;1.17;;
24801;SDS011;12898;50.520;12.152;2023-09-19T09:19:40;4.47;;;1.33;;
24801;SDS011;12898;50.520;12.152;2023-09-19T09:22:11;3.60;;;1.10;;
24801;SDS011;12898;50.520;12.152;2023-09-19T09:24:37;3.55;;;1.00;;
24801;SDS011;12898;50.520;12.152;2023-09-19T09:27:19;1.90;;;0.90;;
24801;SDS011;12898;50.520;12.152;2023-09-19T09:29:46;2.92;;;1.00;;
24801;SDS011;12898;50.520;12.152;2023-09-19T09:32:17;4.40;;;1.30;;
24801;SDS011;12898;50.520;12.152;2023-09-19T09:34:54;1.10;;;0.73;;
24801;SDS011;12898;50.520;12.152;2023-09-19T09:37:23;4.60;;;1.25;;
24801;SDS011;12898;50.520;12.152;2023-09-19T09:42:35;2.92;;;1.00;;
24801;SDS011;12898;50.520;12.152;2023-09-19T09:45:12;1.13;;;0.90;;
24801;SDS011;12898;50.520;12.152;2023-09-19T09:47:53;4.65;;;1.00;;
24801;SDS011;12898;50.520;12.152;2023-09-19T09:50:27;3.97;;;0.98;;
24801;SDS011;12898;50.520;12.152;2023-09-19T09:53:25;2.63;;;1.05;;
24801;SDS011;12898;50.520;12.152;2023-09-19T09:56:04;3.15;;;1.35;;
24801;SDS011;12898;50.520;12.152;2023-09-19T09:58:52;3.50;;;1.00;;
24801;SDS011;12898;50.520;12.152;2023-09-19T10:01:24;3.63;;;1.13;;
24801;SDS011;12898;50.520;12.152;2023-09-19T10:03:56;2.53;;;1.10;;
24801;SDS011;12898;50.520;12.152;2023-09-19T10:06:23;2.88;;;1.30;;
24801;SDS011;12898;50.520;12.152;2023-09-19T10:09:05;1.73;;;0.80;;
24801;SDS011;12898;50.520;12.152;2023-09-19T10:12:06;1.65;;;1.08;;
24801;SDS011;12898;50.520;12.152;2023-09-19T10:14:37;2.03;;;1.17;;
24801;SDS011;12898;50.520;12.152;2023-09-19T10:17:08;3.95;;;1.20;;
24801;SDS011;12898;50.520;12.152;2023-09-19T10:22:22;3.00;;;1.05;;
24801;SDS011;12898;50.520;12.152;2023-09-19T10:24:52;1.55;;;0.93;;
24801;SDS011;12898;50.520;12.152;2023-09-19T10:27:22;2.92;;;1.35;;
24801;SDS011;12898;50.520;12.152;2023-09-19T10:29:51;3.58;;;1.20;;
24801;SDS011;12898;50.520;12.152;2023-09-19T10:32:22;6.70;;;1.60;;
24801;SDS011;12898;50.520;12.152;2023-09-19T10:34:49;2.55;;;1.00;;
24801;SDS011;12898;50.520;12.152;2023-09-19T10:37:18;5.03;;;1.38;;
24801;SDS011;12898;50.520;12.152;2023-09-19T10:39:50;2.22;;;1.27;;
24801;SDS011;12898;50.520;12.152;2023-09-19T10:42:19;2.42;;;1.30;;
24801;SDS011;12898;50.520;12.152;2023-09-19T10:44:45;2.92;;;1.20;;
24801;SDS011;12898;50.520;12.152;2023-09-19T10:47:18;2.70;;;1.20;;
24801;SDS011;12898;50.520;12.152;2023-09-19T10:49:45;3.83;;;1.38;;
24801;SDS011;12898;50.520;12.152;2023-09-19T10:52:12;2.65;;;1.30;;
24801;SDS011;12898;50.520;12.152;2023-09-19T10:54:45;2.55;;;1.45;;
24801;SDS011;12898;50.520;12.152;2023-09-19T10:57:20;3.03;;;1.50;;
24801;SDS011;12898;50.520;12.152;2023-09-19T11:00:07;4.20;;;1.50;;
24801;SDS011;12898;50.520;12.152;2023-09-19T11:05:39;4.05;;;1.77;;
24801;SDS011;12898;50.520;12.152;2023-09-19T11:08:09;6.65;;;1.90;;
24801;SDS011;12898;50.520;12.152;2023-09-19T11:10:50;4.03;;;1.45;;
24801;SDS011;12898;50.520;12.152;2023-09-19T11:13:29;6.20;;;1.55;;
24801;SDS011;12898;50.520;12.152;2023-09-19T11:26:47;3.28;;;1.35;;
24801;SDS011;12898;50.520;12.152;2023-09-19T11:29:29;2.42;;;1.42;;
24801;SDS011;12898;50.520;12.152;2023-09-19T11:31:57;3.20;;;1.65;;
24801;SDS011;12898;50.520;12.152;2023-09-19T11:34:43;3.83;;;1.33;;
24801;SDS011;12898;50.520;12.152;2023-09-19T11:39:39;4.10;;;1.50;;
24801;SDS011;12898;50.520;12.152;2023-09-19T11:42:41;3.50;;;1.45;;
24801;SDS011;12898;50.520;12.152;2023-09-19T11:48:15;2.90;;;1.48;;
24801;SDS011;12898;50.520;12.152;2023-09-19T11:50:43;4.40;;;1.50;;
24801;SDS011;12898;50.520;12.152;2023-09-19T11:53:13;5.70;;;1.65;;
24801;SDS011;12898;50.520;12.152;2023-09-19T11:55:41;2.53;;;1.33;;
24801;SDS011;12898;50.520;12.152;2023-09-19T11:58:09;3.40;;;1.48;;
24801;SDS011;12898;50.520;12.152;2023-09-19T12:00:39;4.72;;;1.60;;
24801;SDS011;12898;50.520;12.152;2023-09-19T12:03:09;2.53;;;1.38;;
24801;SDS011;12898;50.520;12.152;2023-09-19T12:05:36;3.47;;;1.30;;
24801;SDS011;12898;50.520;12.152;2023-09-19T12:08:03;2.83;;;1.35;;
24801;SDS011;12898;50.520;12.152;2023-09-19T12:10:33;2.97;;;1.48;;
24801;SDS011;12898;50.520;12.152;2023-09-19T12:13:18;3.47;;;1.17;;
24801;SDS011;12898;50.520;12.152;2023-09-19T12:15:44;3.10;;;1.80;;
24801;SDS011;12898;50.520;12.152;2023-09-19T12:18:28;5.07;;;2.05;;
24801;SDS011;12898;50.520;12.152;2023-09-19T12:20:55;4.75;;;1.73;;
24801;SDS011;12898;50.520;12.152;2023-09-19T12:23:22;3.90;;;1.77;;
24801;SDS011;12898;50.520;12.152;2023-09-19T12:25:48;6.75;;;1.85;;
24801;SDS011;12898;50.520;12.152;2023-09-19T12:28:18;4.13;;;1.80;;
24801;SDS011;12898;50.520;12.152;2023-09-19T12:30:47;4.68;;;2.35;;
24801;SDS011;12898;50.520;12.152;2023-09-19T12:33:15;3.60;;;1.70;;
24801;SDS011;12898;50.520;12.152;2023-09-19T12:35:46;6.03;;;2.03;;
24801;SDS011;12898;50.520;12.152;2023-09-19T12:38:21;4.65;;;1.98;;
24801;SDS011;12898;50.520;12.152;2023-09-19T12:41:01;3.78;;;2.03;;
24801;SDS011;12898;50.520;12.152;2023-09-19T12:43:30;6.40;;;2.40;;
24801;SDS011;12898;50.520;12.152;2023-09-19T12:46:01;4.07;;;1.95;;
24801;SDS011;12898;50.520;12.152;2023-09-19T12:48:27;3.00;;;1.77;;
24801;SDS011;12898;50.520;12.152;2023-09-19T12:51:09;5.25;;;1.92;;
24801;SDS011;12898;50.520;12.152;2023-09-19T12:53:38;5.47;;;2.30;;
24801;SDS011;12898;50.520;12.152;2023-09-19T12:56:10;3.75;;;1.88;;
24801;SDS011;12898;50.520;12.152;2023-09-19T13:01:19;4.55;;;2.00;;
24801;SDS011;12898;50.520;12.152;2023-09-19T13:03:45;5.95;;;2.45;;
24801;SDS011;12898;50.520;12.152;2023-09-19T13:06:11;4.53;;;1.80;;
24801;SDS011;12898;50.520;12.152;2023-09-19T13:08:38;7.28;;;2.15;;
24801;SDS011;12898;50.520;12.152;2023-09-19T13:11:10;3.75;;;1.90;;
24801;SDS011;12898;50.520;12.152;2023-09-19T13:13:44;4.25;;;2.38;;
24801;SDS011;12898;50.520;12.152;2023-09-19T13:16:19;3.35;;;1.60;;
24801;SDS011;12898;50.520;12.152;2023-09-19T13:21:33;5.45;;;2.10;;
24801;SDS011;12898;50.520;12.152;2023-09-19T13:24:17;4.85;;;2.42;;
24801;SDS011;12898;50.520;12.152;2023-09-19T13:26:48;5.95;;;2.20;;
24801;SDS011;12898;50.520;12.152;2023-09-19T13:29:15;6.28;;;2.28;;
24801;SDS011;12898;50.520;12.152;2023-09-19T13:31:49;5.38;;;2.25;;
24801;SDS011;12898;50.520;12.152;2023-09-19T13:34:20;7.65;;;2.40;;
24801;SDS011;12898;50.520;12.152;2023-09-19T13:36:46;7.50;;;2.70;;
24801;SDS011;12898;50.520;12.152;2023-09-19T13:39:13;7.22;;;2.42;;
24801;SDS011;12898;50.520;12.152;2023-09-19T13:41:41;7.35;;;2.47;;
24801;SDS011;12898;50.520;12.152;2023-09-19T13:44:08;5.90;;;2.40;;
24801;SDS011;12898;50.520;12.152;2023-09-19T13:46:36;8.43;;;2.67;;
24801;SDS011;12898;50.520;12.152;2023-09-19T13:49:02;5.50;;;2.80;;
24801;SDS011;12898;50.520;12.152;2023-09-19T13:51:31;4.10;;;2.63;;
24801;SDS011;12898;50.520;12.152;2023-09-19T13:53:57;5.95;;;2.42;;
24801;SDS011;12898;50.520;12.152;2023-09-19T13:56:24;8.43;;;2.50;;
24801;SDS011;12898;50.520;12.152;2023-09-19T13:58:55;6.90;;;3.10;;
24801;SDS011;12898;50.520;12.152;2023-09-19T14:01:20;4.20;;;2.13;;
24801;SDS011;12898;50.520;12.152;2023-09-19T14:03:46;6.82;;;2.67;;
24801;SDS011;12898;50.520;12.152;2023-09-19T14:06:15;7.07;;;2.85;;
24801;SDS011;12898;50.520;12.152;2023-09-19T14:08:41;7.50;;;2.85;;
24801;SDS011;12898;50.520;12.152;2023-09-19T14:11:07;5.68;;;2.40;;
24801;SDS011;12898;50.520;12.152;2023-09-19T14:13:34;5.78;;;2.40;;
24801;SDS011;12898;50.520;12.152;2023-09-19T14:16:06;5.43;;;2.53;;
24801;SDS011;12898;50.520;12.152;2023-09-19T14:18:33;7.03;;;2.90;;
24801;SDS011;12898;50.520;12.152;2023-09-19T14:21:06;5.60;;;2.72;;
24801;SDS011;12898;50.520;12.152;2023-09-19T14:23:36;8.80;;;3.10;;
24801;SDS011;12898;50.520;12.152;2023-09-19T14:26:03;5.53;;;2.35;;
24801;SDS011;12898;50.520;12.152;2023-09-19T14:28:30;8.50;;;2.72;;
24801;SDS011;12898;50.520;12.152;2023-09-19T14:31:03;6.18;;;2.95;;
24801;SDS011;12898;50.520;12.152;2023-09-19T14:33:36;7.60;;;2.53;;
24801;SDS011;12898;50.520;12.152;2023-09-19T14:36:06;7.93;;;2.90;;
24801;SDS011;12898;50.520;12.152;2023-09-19T14:38:35;3.63;;;2.40;;
24801;SDS011;12898;50.520;12.152;2023-09-19T14:41:03;5.00;;;2.50;;
24801;SDS011;12898;50.520;12.152;2023-09-19T14:43:31;6.20;;;2.80;;
24801;SDS011;12898;50.520;12.152;2023-09-19T14:46:02;7.35;;;2.42;;
24801;SDS011;12898;50.520;12.152;2023-09-19T14:48:35;7.95;;;2.80;;
24801;SDS011;12898;50.520;12.152;2023-09-19T14:51:04;6.57;;;2.90;;
24801;SDS011;12898;50.520;12.152;2023-09-19T14:53:37;5.78;;;2.85;;
24801;SDS011;12898;50.520;12.152;2023-09-19T14:56:03;8.50;;;2.42;;
24801;SDS011;12898;50.520;12.152;2023-09-19T14:58:32;4.50;;;2.22;;
24801;SDS011;12898;50.520;12.152;2023-09-19T15:01:05;7.97;;;2.70;;
24801;SDS011;12898;50.520;12.152;2023-09-19T15:03:35;10.38;;;2.58;;
24801;SDS011;12898;50.520;12.152;2023-09-19T15:06:01;6.53;;;2.50;;
24801;SDS011;12898;50.520;12.152;2023-09-19T15:08:32;6.57;;;2.47;;
24801;SDS011;12898;50.520;12.152;2023-09-19T15:11:01;13.13;;;2.83;;
24801;SDS011;12898;50.520;12.152;2023-09-19T15:13:30;7.38;;;2.25;;
24801;SDS011;12898;50.520;12.152;2023-09-19T15:16:00;4.95;;;2.55;;
24801;SDS011;12898;50.520;12.152;2023-09-19T15:18:27;7.57;;;2.58;;
24801;SDS011;12898;50.520;12.152;2023-09-19T15:20:55;4.50;;;2.30;;
24801;SDS011;12898;50.520;12.152;2023-09-19T15:23:31;10.57;;;2.60;;
24801;SDS011;12898;50.520;12.152;2023-09-19T15:25:59;5.75;;;2.38;;
24801;SDS011;12898;50.520;12.152;2023-09-19T15:28:29;4.95;;;2.42;;
24801;SDS011;12898;50.520;12.152;2023-09-19T15:33:29;6.32;;;2.63;;
24801;SDS011;12898;50.520;12.152;2023-09-19T15:36:05;5.30;;;2.50;;
24801;SDS011;12898;50.520;12.152;2023-09-19T15:41:39;4.72;;;2.42;;
24801;SDS011;12898;50.520;12.152;2023-09-19T15:44:14;8.15;;;2.28;;